createdAt,value
2022-10-11T00:01:27.204Z,8.80
2022-10-11T00:03:55.806Z,8.70
2022-10-11T00:06:24.359Z,8.20
2022-10-11T00:08:53.011Z,8.80
2022-10-11T00:11:21.530Z,8.10
2022-10-11T00:13:50.071Z,8.60
2022-10-11T00:16:18.693Z,8.50
2022-10-11T00:18:47.380Z,7.40
2022-10-11T00:21:16.897Z,8.50
2022-10-11T00:23:45.488Z,7.80
2022-10-11T00:26:14.602Z,7.60
2022-10-11T00:28:43.396Z,8.50
2022-10-11T00:31:18.671Z,8.00
2022-10-11T00:33:47.322Z,9.80
2022-10-11T00:36:17.767Z,12.80
2022-10-11T00:38:46.877Z,12.30
2022-10-11T00:41:16.956Z,9.40
2022-10-11T00:43:46.084Z,8.60
2022-10-11T00:46:28.075Z,8.20
2022-10-11T00:49:03.251Z,8.70
2022-10-11T00:51:44.146Z,7.50
2022-10-11T00:54:17.235Z,7.70
2022-10-11T00:56:50.725Z,7.90
2022-10-11T00:59:25.240Z,8.10
2022-10-11T01:01:54.127Z,9.20
2022-10-11T01:05:11.637Z,8.90
2022-10-11T01:07:48.166Z,8.20
2022-10-11T01:10:18.555Z,8.70
2022-10-11T01:13:04.312Z,8.60
2022-10-11T01:16:11.807Z,9.10
2022-10-11T01:19:47.661Z,8.70
2022-10-11T01:22:37.361Z,9.00
2022-10-11T01:25:25.188Z,7.10
2022-10-11T01:28:41.823Z,7.80
2022-10-11T01:31:35.164Z,7.10
2022-10-11T01:34:41.076Z,7.80
2022-10-11T01:37:35.481Z,7.90
2022-10-11T01:40:37.303Z,7.00
2022-10-11T01:43:07.029Z,7.90
2022-10-11T01:45:36.588Z,8.20
2022-10-11T01:48:12.702Z,7.70
2022-10-11T01:50:52.157Z,8.10
2022-10-11T01:53:41.473Z,8.20
2022-10-11T01:56:38.907Z,8.20
2022-10-11T01:59:28.809Z,8.20
2022-10-11T02:02:18.687Z,7.80
2022-10-11T02:05:17.451Z,7.80
2022-10-11T02:07:56.880Z,7.80
2022-10-11T02:10:43.127Z,8.70
2022-10-11T02:13:31.819Z,8.30
2022-10-11T02:16:06.287Z,8.90
2022-10-11T02:18:44.067Z,7.90
2022-10-11T02:21:23.453Z,8.80
2022-10-11T02:24:10.599Z,8.40
2022-10-11T02:26:44.319Z,8.20
2022-10-11T02:29:17.097Z,8.20
2022-10-11T02:31:47.062Z,7.80
2022-10-11T02:34:26.042Z,7.60
2022-10-11T02:37:16.372Z,8.90
2022-10-11T02:40:03.474Z,8.40
2022-10-11T02:42:40.270Z,8.20
2022-10-11T02:45:20.435Z,7.40
2022-10-11T02:47:49.546Z,8.80
2022-10-11T02:50:18.226Z,8.20
2022-10-11T02:52:46.721Z,9.00
2022-10-11T02:55:15.249Z,9.60
2022-10-11T02:57:44.520Z,10.80
2022-10-11T03:00:14.388Z,11.70
2022-10-11T03:02:42.980Z,10.70
2022-10-11T03:05:11.601Z,12.30
2022-10-11T03:07:40.288Z,10.90
2022-10-11T03:10:09.590Z,10.60
2022-10-11T03:12:38.573Z,10.70
2022-10-11T03:15:07.768Z,10.60
2022-10-11T03:17:37.574Z,10.70
2022-10-11T03:20:07.791Z,12.40
2022-10-11T03:22:36.465Z,11.20
2022-10-11T03:25:05.537Z,11.20
2022-10-11T03:27:34.440Z,10.80
2022-10-11T03:30:05.490Z,10.50
2022-10-11T03:32:34.076Z,10.40
2022-10-11T03:35:03.151Z,10.90
2022-10-11T03:37:31.679Z,9.70
2022-10-11T03:40:00.236Z,13.40
2022-10-11T03:42:29.613Z,11.70
2022-10-11T03:45:00.038Z,12.70
2022-10-11T03:47:28.602Z,11.50
2022-10-11T03:49:57.142Z,11.20
2022-10-11T03:52:25.752Z,10.20
2022-10-11T03:54:54.210Z,10.90
2022-10-11T03:57:22.764Z,11.70
2022-10-11T03:59:51.354Z,12.60
2022-10-11T04:02:19.920Z,11.60
2022-10-11T04:04:48.559Z,13.30
2022-10-11T04:07:17.168Z,14.60
2022-10-11T04:09:45.748Z,15.90
2022-10-11T04:12:14.648Z,16.40
2022-10-11T04:14:43.185Z,13.70
2022-10-11T04:17:11.817Z,13.80
2022-10-11T04:19:40.309Z,15.20
2022-10-11T04:22:09.245Z,15.00
2022-10-11T04:24:37.758Z,16.40
2022-10-11T04:27:06.481Z,17.80
2022-10-11T04:29:35.084Z,18.00
2022-10-11T04:32:03.659Z,18.40
2022-10-11T04:34:32.255Z,16.90
2022-10-11T04:37:00.865Z,17.90
2022-10-11T04:39:29.497Z,16.00
2022-10-11T04:41:58.137Z,16.00
2022-10-11T04:44:26.704Z,15.60
2022-10-11T04:46:55.236Z,13.90
2022-10-11T04:49:24.350Z,15.00
2022-10-11T04:51:53.465Z,16.20
2022-10-11T04:54:22.323Z,16.10
2022-10-11T04:56:50.997Z,14.20
2022-10-11T04:59:19.629Z,14.40
2022-10-11T05:01:48.548Z,16.90
2022-10-11T05:04:17.172Z,16.10
2022-10-11T05:06:45.836Z,16.30
2022-10-11T05:09:14.494Z,17.00
2022-10-11T05:11:43.041Z,19.20
2022-10-11T05:14:11.686Z,17.40
2022-10-11T05:16:40.262Z,16.70
2022-10-11T05:19:08.869Z,17.90
2022-10-11T05:21:37.537Z,16.80
2022-10-11T05:24:07.064Z,16.30
2022-10-11T05:26:35.685Z,15.40
2022-10-11T05:29:04.329Z,16.30
2022-10-11T05:31:33.412Z,16.20
2022-10-11T05:34:01.973Z,15.40
2022-10-11T05:36:30.661Z,14.30
2022-10-11T05:38:59.266Z,15.20
2022-10-11T05:41:29.371Z,15.90
2022-10-11T05:43:57.930Z,15.50
2022-10-11T05:46:26.633Z,16.50
2022-10-11T05:48:55.171Z,15.30
2022-10-11T05:51:23.841Z,14.20
2022-10-11T05:53:52.991Z,19.50
2022-10-11T05:56:24.560Z,17.00
2022-10-11T05:58:57.530Z,19.90
2022-10-11T06:01:29.073Z,17.10
2022-10-11T06:03:58.127Z,18.00
2022-10-11T06:06:26.957Z,15.90
2022-10-11T06:08:55.629Z,17.40
2022-10-11T06:11:27.883Z,17.90
2022-10-11T06:13:58.323Z,18.90
2022-10-11T06:16:27.633Z,17.00
2022-10-11T06:18:57.637Z,17.10
2022-10-11T06:21:26.545Z,16.30
2022-10-11T06:24:00.858Z,14.80
2022-10-11T06:26:31.151Z,15.10
2022-10-11T06:29:00.947Z,15.50
2022-10-11T06:31:29.569Z,12.60
2022-10-11T06:34:00.178Z,15.40
2022-10-11T06:36:29.033Z,16.20
2022-10-11T06:38:57.777Z,13.40
2022-10-11T06:41:29.396Z,12.80
2022-10-11T06:43:58.357Z,11.30
2022-10-11T06:46:28.948Z,11.10
2022-10-11T06:48:57.502Z,10.40
2022-10-11T06:51:26.222Z,11.20
2022-10-11T06:53:58.188Z,10.30
2022-10-11T06:56:29.246Z,9.20
2022-10-11T06:59:04.278Z,10.90
2022-10-11T07:01:33.579Z,10.30
2022-10-11T07:04:03.283Z,10.10
2022-10-11T07:06:32.355Z,11.90
2022-10-11T07:09:01.503Z,13.80
2022-10-11T07:11:30.671Z,13.80
2022-10-11T07:14:04.473Z,13.50
2022-10-11T07:16:47.039Z,12.70
2022-10-11T07:19:15.811Z,13.90
2022-10-11T07:21:44.462Z,9.20
2022-10-11T07:24:13.212Z,7.10
2022-10-11T07:26:42.435Z,7.00
2022-10-11T07:29:12.152Z,9.00
2022-10-11T07:31:43.208Z,9.20
2022-10-11T07:34:12.328Z,7.90
2022-10-11T07:36:41.141Z,8.10
2022-10-11T07:39:10.356Z,8.60
2022-10-11T07:41:44.607Z,8.10
2022-10-11T07:44:15.094Z,8.70
2022-10-11T07:46:43.648Z,9.10
2022-10-11T07:49:12.218Z,8.60
2022-10-11T07:51:40.830Z,9.40
2022-10-11T07:54:09.451Z,9.00
2022-10-11T07:56:38.615Z,9.60
2022-10-11T07:59:08.476Z,9.10
2022-10-11T08:01:37.174Z,9.40
2022-10-11T08:04:06.182Z,7.60
2022-10-11T08:06:36.850Z,8.90
2022-10-11T08:09:06.660Z,9.70
2022-10-11T08:11:38.360Z,9.70
2022-10-11T08:14:09.470Z,8.90
2022-10-11T08:16:39.682Z,7.80
2022-10-11T08:19:08.496Z,9.10
2022-10-11T08:21:37.200Z,8.50
2022-10-11T08:24:06.858Z,7.00
2022-10-11T08:26:35.897Z,7.20
2022-10-11T08:29:05.438Z,7.60
2022-10-11T08:31:35.503Z,7.70
2022-10-11T08:34:04.200Z,7.50
2022-10-11T08:36:33.026Z,7.00
2022-10-11T08:39:01.768Z,8.20
2022-10-11T08:41:51.563Z,8.30
2022-10-11T08:44:52.128Z,8.20
2022-10-11T08:48:04.558Z,7.40
2022-10-11T08:50:33.206Z,7.30
2022-10-11T08:53:16.634Z,6.20
2022-10-11T08:55:51.134Z,6.20
2022-10-11T08:58:37.788Z,6.70
2022-10-11T09:01:14.771Z,6.90
2022-10-11T09:03:47.445Z,7.70
2022-10-11T09:06:37.256Z,7.40
2022-10-11T09:09:50.086Z,5.90
2022-10-11T09:13:08.202Z,7.60
2022-10-11T09:15:57.430Z,6.40
2022-10-11T09:18:41.337Z,7.30
2022-10-11T09:21:35.939Z,6.50
2022-10-11T09:24:25.900Z,6.80
2022-10-11T09:26:59.589Z,6.60
2022-10-11T09:29:52.501Z,5.70
2022-10-11T09:32:29.187Z,5.60
2022-10-11T09:35:11.442Z,5.40
2022-10-11T09:38:04.761Z,6.00
2022-10-11T09:40:53.348Z,5.60
2022-10-11T09:43:22.464Z,5.30
2022-10-11T09:45:52.333Z,5.70
2022-10-11T09:48:29.176Z,5.90
2022-10-11T09:51:14.588Z,4.70
2022-10-11T09:53:59.924Z,4.40
2022-10-11T09:56:32.026Z,4.50
2022-10-11T09:59:30.853Z,5.10
2022-10-11T10:02:15.224Z,4.70
2022-10-11T10:05:00.216Z,4.20
2022-10-11T10:07:32.163Z,4.00
2022-10-11T10:10:35.793Z,5.00
2022-10-11T10:13:27.705Z,3.40
2022-10-11T10:16:24.690Z,4.40
2022-10-11T10:19:44.982Z,4.30
2022-10-11T10:22:38.818Z,3.70
2022-10-11T10:25:57.046Z,4.40
2022-10-11T10:29:27.618Z,5.20
2022-10-11T10:32:13.778Z,3.60
2022-10-11T10:35:26.934Z,2.90
2022-10-11T10:38:29.359Z,3.10
2022-10-11T10:41:03.458Z,2.10
2022-10-11T10:43:40.120Z,2.30
2022-10-11T10:46:11.851Z,3.00
2022-10-11T10:52:44.093Z,2.70
2022-10-11T10:55:36.625Z,3.60
2022-10-11T10:58:18.803Z,2.80
2022-10-11T11:00:56.423Z,2.60
2022-10-11T11:03:44.505Z,2.50
2022-10-11T11:06:39.239Z,5.20
2022-10-11T11:09:41.678Z,2.50
2022-10-11T11:12:22.426Z,2.30
2022-10-11T11:15:10.536Z,2.40
2022-10-11T11:18:20.584Z,2.70
2022-10-11T11:21:10.819Z,2.30
2022-10-11T11:23:45.269Z,2.10
2022-10-11T11:26:35.507Z,2.10
2022-10-11T11:29:41.431Z,2.40
2022-10-11T11:32:24.947Z,1.80
2022-10-11T11:35:42.956Z,1.90
2022-10-11T11:38:38.421Z,2.20
2022-10-11T11:41:19.606Z,2.20
2022-10-11T11:44:06.521Z,1.90
2022-10-11T11:46:44.325Z,2.10
2022-10-11T11:49:29.686Z,2.10
2022-10-11T11:51:59.362Z,2.20
2022-10-11T11:54:58.983Z,3.10
2022-10-11T11:58:11.268Z,2.40
2022-10-11T12:01:18.664Z,2.80
2022-10-11T12:03:57.206Z,2.60
2022-10-11T12:06:32.217Z,2.60
2022-10-11T12:09:27.774Z,2.50
2022-10-11T12:12:19.752Z,2.40
2022-10-11T12:14:48.894Z,2.60
2022-10-11T12:17:24.090Z,2.90
2022-10-11T12:20:08.558Z,2.60
2022-10-11T12:23:01.460Z,3.00
2022-10-11T12:28:37.433Z,2.80
2022-10-11T12:31:27.007Z,2.80
2022-10-11T12:34:01.857Z,3.40
2022-10-11T12:36:41.115Z,4.00
2022-10-11T12:39:18.877Z,3.00
2022-10-11T12:41:51.095Z,3.20
2022-10-11T12:44:20.151Z,3.20
2022-10-11T12:46:53.841Z,3.40
2022-10-11T12:49:34.231Z,3.10
2022-10-11T12:52:21.730Z,3.40
2022-10-11T12:55:11.097Z,4.00
2022-10-11T12:58:01.673Z,4.00
2022-10-11T13:00:52.143Z,3.80
2022-10-11T13:03:58.074Z,3.30
2022-10-11T13:07:03.196Z,4.00
2022-10-11T13:09:45.307Z,4.40
2022-10-11T13:12:21.699Z,4.40
2022-10-11T13:15:15.816Z,3.70
2022-10-11T13:17:48.930Z,3.90
2022-10-11T13:20:17.772Z,4.00
2022-10-11T13:22:53.657Z,4.30
2022-10-11T13:25:28.537Z,4.30
2022-10-11T13:27:59.860Z,3.40
2022-10-11T13:30:35.961Z,3.30
2022-10-11T13:33:21.769Z,3.20
2022-10-11T13:35:51.519Z,3.10
2022-10-11T13:38:28.295Z,3.80
2022-10-11T13:40:59.865Z,3.40
2022-10-11T13:43:31.202Z,3.40
2022-10-11T13:46:05.245Z,3.30
2022-10-11T13:48:41.946Z,2.40
2022-10-11T13:51:35.606Z,3.00
2022-10-11T13:54:13.524Z,2.70
2022-10-11T13:56:51.519Z,3.30
2022-10-11T13:59:24.092Z,2.70
2022-10-11T14:02:00.395Z,2.60
2022-10-11T14:04:40.780Z,2.80
2022-10-11T14:07:38.044Z,2.90
2022-10-11T14:10:07.358Z,3.50
2022-10-11T14:12:44.284Z,4.00
2022-10-11T14:15:31.189Z,3.10
2022-10-11T14:18:23.041Z,4.20
2022-10-11T14:20:51.758Z,3.10
2022-10-11T14:23:20.626Z,2.80
2022-10-11T14:25:55.506Z,3.70
2022-10-11T14:28:24.399Z,3.40
2022-10-11T14:30:53.243Z,3.80
2022-10-11T14:33:22.141Z,3.20
2022-10-11T14:35:50.912Z,3.00
2022-10-11T14:38:27.132Z,2.90
2022-10-11T14:41:01.276Z,3.10
2022-10-11T14:43:29.957Z,4.10
2022-10-11T14:45:59.567Z,4.30
2022-10-11T14:48:50.401Z,4.00
2022-10-11T14:51:28.261Z,3.50
2022-10-11T14:53:57.248Z,4.10
2022-10-11T14:56:26.185Z,4.00
2022-10-11T14:58:56.196Z,4.50
2022-10-11T15:01:40.116Z,3.90
2022-10-11T15:04:22.646Z,4.70
2022-10-11T15:06:56.837Z,4.40
2022-10-11T15:09:30.241Z,7.50
2022-10-11T15:11:59.000Z,10.70
2022-10-11T15:14:48.454Z,12.60
2022-10-11T15:17:38.409Z,14.60
2022-10-11T15:21:28.562Z,6.50
2022-10-11T15:24:36.316Z,27.20
2022-10-11T15:27:42.560Z,14.50
2022-10-11T15:31:31.492Z,8.50
2022-10-11T15:34:01.996Z,7.20
2022-10-11T15:36:31.901Z,4.60
2022-10-11T15:39:01.903Z,5.10
2022-10-11T15:41:36.474Z,5.00
2022-10-11T15:44:05.264Z,4.70
2022-10-11T15:46:33.942Z,5.40
2022-10-11T15:49:06.628Z,4.40
2022-10-11T15:54:11.345Z,5.10
2022-10-11T15:56:40.113Z,5.60
2022-10-11T15:59:11.821Z,5.60
2022-10-11T16:04:54.938Z,5.70
2022-10-11T16:08:19.670Z,5.70
2022-10-11T16:14:06.810Z,5.50
2022-10-11T16:16:35.374Z,5.60
2022-10-11T16:19:03.958Z,6.00
2022-10-11T16:21:32.524Z,5.50
2022-10-11T16:24:01.234Z,6.30
2022-10-11T16:26:29.849Z,6.60
2022-10-11T16:28:58.523Z,9.20
2022-10-11T16:31:29.147Z,16.70
2022-10-11T16:33:57.961Z,13.40
2022-10-11T16:36:32.148Z,8.30
2022-10-11T16:39:05.706Z,8.40
2022-10-11T16:41:34.308Z,8.50
2022-10-11T16:44:04.288Z,7.20
2022-10-11T16:46:34.223Z,8.40
2022-10-11T16:49:03.680Z,8.50
2022-10-11T16:51:32.441Z,8.00
2022-10-11T16:54:02.059Z,8.60
2022-10-11T16:56:37.346Z,7.50
2022-10-11T16:59:11.371Z,7.60
2022-10-11T17:01:40.399Z,8.10
2022-10-11T17:04:11.248Z,7.80
2022-10-11T17:06:41.355Z,8.40
2022-10-11T17:09:10.829Z,8.80
2022-10-11T17:11:40.960Z,8.20
2022-10-11T17:14:12.151Z,7.50
2022-10-11T17:16:40.817Z,7.40
2022-10-11T17:19:12.235Z,8.50
2022-10-11T17:21:43.261Z,9.30
2022-10-11T17:24:11.908Z,7.90
2022-10-11T17:26:40.601Z,9.00
2022-10-11T17:29:15.330Z,8.60
2022-10-11T17:31:48.813Z,10.40
2022-10-11T17:34:18.493Z,7.50
2022-10-11T17:36:47.668Z,8.60
2022-10-11T17:39:22.862Z,8.40
2022-10-11T17:41:51.969Z,17.10
2022-10-11T17:44:22.062Z,12.90
2022-10-11T17:46:50.664Z,13.80
2022-10-11T17:49:21.813Z,14.30
2022-10-11T17:51:52.710Z,11.30
2022-10-11T17:54:21.291Z,10.60
2022-10-11T17:56:50.611Z,11.50
2022-10-11T17:59:21.608Z,10.10
2022-10-11T18:01:50.868Z,9.00
2022-10-11T18:04:21.761Z,9.10
2022-10-11T18:06:50.380Z,8.00
2022-10-11T18:09:19.909Z,8.70
2022-10-11T18:11:49.606Z,7.60
2022-10-11T18:14:18.484Z,7.80
2022-10-11T18:16:47.166Z,7.30
2022-10-11T18:19:15.869Z,12.70
2022-10-11T18:21:44.657Z,9.00
2022-10-11T18:24:16.582Z,11.40
2022-10-11T18:26:46.593Z,10.90
2022-10-11T18:29:15.701Z,11.70
2022-10-11T18:31:45.134Z,7.50
2022-10-11T18:34:16.102Z,7.50
2022-10-11T18:36:44.697Z,7.40
2022-10-11T18:39:15.472Z,7.50
2022-10-11T18:41:46.008Z,8.10
2022-10-11T18:44:15.949Z,8.20
2022-10-11T18:46:45.550Z,7.10
2022-10-11T18:49:14.793Z,7.70
2022-10-11T18:51:46.766Z,8.80
2022-10-11T18:54:20.238Z,8.40
2022-10-11T18:56:50.423Z,9.40
2022-10-11T18:59:20.388Z,10.00
2022-10-11T19:01:52.593Z,9.40
2022-10-11T19:04:21.702Z,8.30
2022-10-11T19:06:50.919Z,9.80
2022-10-11T19:09:23.334Z,10.10
2022-10-11T19:11:55.397Z,12.00
2022-10-11T19:14:28.788Z,11.70
2022-10-11T19:16:58.155Z,11.30
2022-10-11T19:19:29.833Z,9.90
2022-10-11T19:21:59.587Z,9.70
2022-10-11T19:24:30.160Z,9.70
2022-10-11T19:27:02.619Z,10.20
2022-10-11T19:29:32.610Z,10.40
2022-10-11T19:32:03.809Z,9.00
2022-10-11T19:34:33.331Z,9.80
2022-10-11T19:37:03.442Z,9.60
2022-10-11T19:39:32.398Z,11.40
2022-10-11T19:42:01.421Z,11.00
2022-10-11T19:44:31.195Z,12.40
2022-10-11T19:47:05.429Z,13.10
2022-10-11T19:49:36.687Z,10.50
2022-10-11T19:52:09.727Z,9.30
2022-10-11T19:57:14.309Z,9.30
2022-10-11T19:59:42.996Z,9.40
2022-10-11T20:02:14.855Z,10.00
2022-10-11T20:04:52.360Z,9.40
2022-10-11T20:07:21.478Z,10.30
2022-10-11T20:09:50.249Z,11.70
2022-10-11T20:12:18.893Z,10.40
2022-10-11T20:14:47.476Z,9.00
2022-10-11T20:17:16.296Z,9.70
2022-10-11T20:19:44.948Z,10.30
2022-10-11T20:22:13.616Z,23.80
2022-10-11T20:24:42.195Z,11.10
2022-10-11T20:27:10.733Z,11.80
2022-10-11T20:29:39.280Z,10.10
2022-10-11T20:32:15.116Z,10.10
2022-10-11T20:34:43.720Z,10.70
2022-10-11T20:37:12.408Z,11.10
2022-10-11T20:39:40.984Z,11.30
2022-10-11T20:42:09.514Z,11.40
2022-10-11T20:44:38.073Z,11.00
2022-10-11T20:47:06.710Z,10.20
2022-10-11T20:49:35.319Z,8.70
2022-10-11T20:52:03.933Z,8.50
2022-10-11T20:54:34.397Z,8.80
2022-10-11T20:57:03.256Z,8.20
2022-10-11T20:59:31.838Z,7.70
2022-10-11T21:02:00.362Z,7.10
2022-10-11T21:04:29.226Z,7.20
2022-10-11T21:06:58.217Z,7.00
2022-10-11T21:09:26.753Z,7.40
2022-10-11T21:11:56.601Z,7.90
2022-10-11T21:14:25.164Z,9.10
2022-10-11T21:16:53.745Z,8.60
2022-10-11T21:19:22.394Z,8.20
2022-10-11T21:21:53.664Z,8.20
2022-10-11T21:24:22.781Z,8.30
2022-10-11T21:26:51.397Z,7.00
2022-10-11T21:29:20.005Z,7.50
2022-10-11T21:31:48.731Z,7.90
2022-10-11T21:34:17.389Z,7.60
2022-10-11T21:36:45.939Z,8.50
2022-10-11T21:39:14.569Z,7.60
2022-10-11T21:41:43.063Z,7.40
2022-10-11T21:44:11.664Z,8.40
2022-10-11T21:47:06.645Z,8.50
2022-10-11T21:49:29.304Z,9.50
2022-10-11T21:51:57.983Z,10.70
2022-10-11T21:54:26.682Z,10.10
2022-10-11T21:56:55.276Z,9.60
2022-10-11T21:59:23.790Z,7.20
2022-10-11T22:01:52.436Z,9.60
2022-10-11T22:04:21.051Z,9.60
2022-10-11T22:06:49.612Z,12.10
2022-10-11T22:09:18.118Z,13.00
2022-10-11T22:11:46.654Z,10.90
2022-10-11T22:14:15.728Z,13.90
2022-10-11T22:16:44.247Z,13.10
2022-10-11T22:19:12.801Z,13.70
2022-10-11T22:21:44.861Z,12.40
2022-10-11T22:24:13.930Z,13.00
2022-10-11T22:26:42.488Z,12.20
2022-10-11T22:29:11.163Z,13.10
2022-10-11T22:31:39.730Z,12.90
2022-10-11T22:34:08.363Z,13.20
2022-10-11T22:36:36.877Z,13.50
2022-10-11T22:39:08.203Z,13.30
2022-10-11T22:41:37.920Z,13.70
2022-10-11T22:44:06.687Z,13.60
2022-10-11T22:46:35.256Z,12.00
2022-10-11T22:49:03.807Z,12.20
2022-10-11T22:51:32.353Z,13.10
2022-10-11T22:54:00.972Z,12.40
2022-10-11T22:56:29.551Z,12.30
2022-10-11T22:58:59.672Z,10.70
2022-10-11T23:01:28.191Z,9.00
2022-10-11T23:03:56.833Z,8.80
2022-10-11T23:06:25.438Z,9.50
2022-10-11T23:08:54.075Z,10.20
2022-10-11T23:11:22.654Z,10.80
2022-10-11T23:13:51.261Z,9.30
2022-10-11T23:16:19.984Z,10.90
2022-10-11T23:18:48.515Z,11.10
2022-10-11T23:21:17.060Z,12.20
2022-10-11T23:23:45.759Z,11.00
2022-10-11T23:26:17.215Z,10.60
2022-10-11T23:28:46.012Z,10.60
2022-10-11T23:31:18.701Z,11.10
2022-10-11T23:33:48.387Z,11.90
2022-10-11T23:36:20.148Z,12.90
2022-10-11T23:38:58.339Z,12.50
2022-10-11T23:41:29.485Z,12.20
2022-10-11T23:43:58.773Z,12.90
2022-10-11T23:46:27.475Z,11.70
2022-10-11T23:48:55.932Z,11.90
2022-10-11T23:51:24.415Z,11.50
2022-10-11T23:53:53.169Z,11.90
2022-10-11T23:56:21.728Z,12.00
2022-10-11T23:58:50.435Z,12.40
